Time;durP1;ratioP1;P1;durP2;ratioP2;P2;SDS_P1;SDS_P2;PMS_P1;PMS_P2;Temp;Humidity;BMP_temperature;BMP_pressure;BME280_temperature;BME280_humidity;BME280_pressure;Samples;Min_cycle;Max_cycle;Signal;HPM_P1;HPM_P2
2023/09/07 00:00:16;;;;;;;3.30;2.55;;;23.60;99.90;;;;;;5088383;28;20145;-42
2023/09/07 00:02:42;;;;;;;2.63;2.40;;;23.60;99.90;;;;;;5087882;28;20349;-42
2023/09/07 00:05:09;;;;;;;2.28;2.05;;;23.60;99.90;;;;;;5086014;28;20039;-43
2023/09/07 00:07:37;;;;;;;3.03;2.53;;;23.60;99.90;;;;;;5087578;28;20020;-43
2023/09/07 00:10:03;;;;;;;2.83;2.40;;;23.50;99.90;;;;;;5087633;28;20067;-43
2023/09/07 00:12:28;;;;;;;2.17;1.98;;;23.50;99.90;;;;;;5086669;28;20020;-43
2023/09/07 00:14:55;;;;;;;2.75;2.53;;;23.50;99.90;;;;;;5087345;28;20031;-42
2023/09/07 00:17:21;;;;;;;2.60;2.40;;;23.50;99.90;;;;;;5086496;28;20574;-43
2023/09/07 00:19:49;;;;;;;3.22;2.22;;;23.40;99.90;;;;;;5087405;28;20024;-43
2023/09/07 00:22:17;;;;;;;3.47;2.38;;;23.50;99.90;;;;;;5086664;28;20020;-42
2023/09/07 00:24:44;;;;;;;4.32;2.35;;;23.40;99.90;;;;;;5086971;28;20114;-42
2023/09/07 00:27:11;;;;;;;2.60;2.40;;;23.40;99.90;;;;;;5086432;28;20031;-42
2023/09/07 00:29:37;;;;;;;3.35;2.75;;;23.30;99.90;;;;;;5086699;28;20043;-43
2023/09/07 00:32:03;;;;;;;2.50;2.30;;;23.30;99.90;;;;;;5086475;28;20016;-42
2023/09/07 00:34:29;;;;;;;3.95;2.70;;;23.30;99.90;;;;;;5086989;28;20028;-43
2023/09/07 00:36:54;;;;;;;3.00;2.47;;;23.20;99.90;;;;;;5086900;28;20043;-43
2023/09/07 00:39:20;;;;;;;3.70;2.67;;;23.20;99.90;;;;;;5085988;28;20698;-44
2023/09/07 00:41:45;;;;;;;3.65;2.40;;;23.20;99.90;;;;;;5087367;28;20043;-43
2023/09/07 00:44:11;;;;;;;3.03;2.58;;;23.20;99.90;;;;;;5086682;28;20521;-43
2023/09/07 00:46:37;;;;;;;2.22;2.05;;;23.10;99.90;;;;;;5087350;28;20020;-43
2023/09/07 00:49:05;;;;;;;3.28;2.88;;;23.10;99.90;;;;;;5086192;28;20024;-42
2023/09/07 00:51:31;;;;;;;2.97;2.65;;;23.00;99.90;;;;;;5086271;28;20084;-42
2023/09/07 00:53:58;;;;;;;2.60;2.40;;;23.00;99.90;;;;;;5085788;28;20067;-42
2023/09/07 00:56:26;;;;;;;3.15;2.85;;;23.00;99.90;;;;;;5086896;28;20027;-42
2023/09/07 00:58:54;;;;;;;3.85;2.50;;;23.00;99.90;;;;;;5086782;28;20110;-42
2023/09/07 01:01:20;;;;;;;2.38;2.17;;;22.90;99.90;;;;;;5085155;28;20109;-42
2023/09/07 01:03:45;;;;;;;3.22;2.92;;;22.90;99.90;;;;;;5086458;28;20032;-42
2023/09/07 01:06:31;;;;;;;3.03;2.72;;;22.90;99.90;;;;;;5086196;28;20035;-42
2023/09/07 01:09:02;;;;;;;2.85;2.55;;;22.90;99.90;;;;;;5086893;28;20107;-42
2023/09/07 01:11:36;;;;;;;2.60;2.40;;;22.90;99.90;;;;;;5087013;28;20043;-43
2023/09/07 01:14:04;;;;;;;3.03;2.60;;;22.80;99.90;;;;;;5085282;28;20042;-44
2023/09/07 01:16:33;;;;;;;2.53;2.28;;;22.80;99.90;;;;;;5085968;28;20074;-43
2023/09/07 01:19:00;;;;;;;3.58;2.70;;;22.80;99.90;;;;;;5085851;28;20676;-43
2023/09/07 01:21:27;;;;;;;2.80;2.60;;;22.80;99.90;;;;;;5085535;28;20546;-43
2023/09/07 01:23:54;;;;;;;2.88;2.67;;;22.80;99.90;;;;;;5086597;28;20019;-43
2023/09/07 01:26:20;;;;;;;4.20;2.78;;;22.80;99.90;;;;;;5085449;28;20032;-42
2023/09/07 01:28:46;;;;;;;2.83;2.60;;;22.80;99.90;;;;;;5085624;28;20718;-42
2023/09/07 01:31:12;;;;;;;2.80;2.58;;;22.70;99.90;;;;;;5085547;28;20023;-43
2023/09/07 01:33:37;;;;;;;3.50;3.13;;;22.70;99.90;;;;;;5085995;28;20032;-43
2023/09/07 01:36:03;;;;;;;2.65;2.45;;;22.70;99.90;;;;;;5084616;28;20093;-43
2023/09/07 01:38:29;;;;;;;2.88;2.60;;;22.70;99.90;;;;;;5086465;28;20503;-43
2023/09/07 01:40:55;;;;;;;3.53;2.45;;;22.70;99.90;;;;;;5084950;28;20039;-43
2023/09/07 01:43:20;;;;;;;7.43;2.88;;;22.70;99.90;;;;;;5084450;28;20024;-43
2023/09/07 01:45:46;;;;;;;3.42;2.80;;;22.60;99.90;;;;;;5085940;28;20379;-43
2023/09/07 01:48:13;;;;;;;2.90;2.70;;;22.60;99.90;;;;;;5085125;28;20091;-44
2023/09/07 01:50:39;;;;;;;3.05;2.78;;;22.60;99.90;;;;;;5085159;28;20047;-44
2023/09/07 01:53:05;;;;;;;3.05;2.75;;;22.60;99.90;;;;;;5085520;28;20713;-43
2023/09/07 01:55:31;;;;;;;3.15;2.67;;;22.60;99.90;;;;;;5085475;28;20048;-43
2023/09/07 01:57:57;;;;;;;3.15;2.75;;;22.60;99.90;;;;;;5084667;28;20115;-44
2023/09/07 02:00:23;;;;;;;2.80;2.60;;;22.50;99.90;;;;;;5085380;28;20111;-43
2023/09/07 02:02:48;;;;;;;5.50;3.00;;;22.50;99.90;;;;;;5085373;28;20028;-42
2023/09/07 02:05:14;;;;;;;3.15;2.85;;;22.50;99.90;;;;;;5084982;28;20498;-42
2023/09/07 02:07:43;;;;;;;3.83;3.05;;;22.50;99.90;;;;;;5085356;28;20510;-43
2023/09/07 02:10:09;;;;;;;3.10;2.80;;;22.40;99.90;;;;;;5084224;28;20032;-42
2023/09/07 02:12:34;;;;;;;3.35;3.05;;;22.40;99.90;;;;;;5085710;28;20137;-43
2023/09/07 02:15:02;;;;;;;4.00;2.80;;;22.40;99.90;;;;;;5084650;28;20469;-43
2023/09/07 02:17:28;;;;;;;3.80;2.88;;;22.40;99.90;;;;;;5084379;28;20154;-43
2023/09/07 02:19:56;;;;;;;3.47;3.17;;;22.30;99.90;;;;;;5086191;28;20558;-43
2023/09/07 02:22:22;;;;;;;2.80;2.55;;;22.30;99.90;;;;;;5085315;28;20034;-43
2023/09/07 02:24:47;;;;;;;3.03;2.70;;;22.30;99.90;;;;;;5085212;28;20031;-43
2023/09/07 02:27:13;;;;;;;3.67;2.90;;;22.30;99.90;;;;;;5084710;28;20396;-43
2023/09/07 02:29:39;;;;;;;3.05;2.85;;;22.30;99.90;;;;;;5085235;28;20085;-43
2023/09/07 02:32:09;;;;;;;3.35;2.80;;;22.20;99.90;;;;;;5084274;28;20020;-42
2023/09/07 02:34:36;;;;;;;5.07;2.90;;;22.20;99.90;;;;;;5086048;28;20024;-42
2023/09/07 02:37:02;;;;;;;3.40;2.90;;;22.20;99.90;;;;;;5084423;28;20031;-42
2023/09/07 02:39:33;;;;;;;3.13;2.90;;;22.20;99.90;;;;;;5084270;28;20081;-43
2023/09/07 02:41:59;;;;;;;3.80;3.03;;;22.10;99.90;;;;;;5084723;28;20781;-42
2023/09/07 02:44:25;;;;;;;3.50;3.20;;;22.10;99.90;;;;;;5085091;28;20054;-43
2023/09/07 02:46:50;;;;;;;3.90;2.72;;;22.10;99.90;;;;;;5084197;28;20030;-42
2023/09/07 02:49:16;;;;;;;3.22;2.92;;;22.10;99.90;;;;;;5084364;28;20031;-43
2023/09/07 02:51:41;;;;;;;2.92;2.63;;;22.10;99.90;;;;;;5084699;28;20475;-42
2023/09/07 02:54:10;;;;;;;3.22;2.70;;;22.10;99.90;;;;;;5083879;28;20019;-42
2023/09/07 02:56:35;;;;;;;2.75;2.45;;;22.10;99.90;;;;;;5084507;28;20040;-42
2023/09/07 02:59:01;;;;;;;3.03;2.83;;;22.00;99.90;;;;;;5084234;28;20666;-44
2023/09/07 03:01:26;;;;;;;3.20;2.90;;;22.00;99.90;;;;;;5084512;28;20071;-43
2023/09/07 03:03:52;;;;;;;3.00;2.80;;;22.00;99.90;;;;;;5084016;28;20028;-43
2023/09/07 03:06:18;;;;;;;3.13;2.83;;;22.00;99.90;;;;;;5083743;28;20479;-43
2023/09/07 03:08:44;;;;;;;3.78;2.88;;;21.90;99.90;;;;;;5082825;28;20032;-42
2023/09/07 03:11:10;;;;;;;4.07;3.10;;;21.90;99.90;;;;;;5077683;28;20564;-42
2023/09/07 03:13:42;;;;;;;3.10;2.70;;;21.90;99.90;;;;;;5083527;28;20070;-42
2023/09/07 03:16:07;;;;;;;2.70;2.50;;;21.90;99.90;;;;;;5083601;28;20043;-43
2023/09/07 03:18:33;;;;;;;2.97;2.78;;;21.90;99.90;;;;;;5084804;28;20044;-44
2023/09/07 03:21:01;;;;;;;4.45;3.25;;;21.90;99.90;;;;;;5084038;28;20105;-43
2023/09/07 03:23:28;;;;;;;2.80;2.60;;;21.80;99.90;;;;;;5084787;28;20029;-42
2023/09/07 03:26:05;;;;;;;3.22;2.92;;;21.80;99.90;;;;;;5084364;28;20232;-42
2023/09/07 03:28:31;;;;;;;2.92;2.63;;;21.80;99.90;;;;;;5084093;28;20015;-43
2023/09/07 03:30:57;;;;;;;3.47;3.17;;;21.80;99.90;;;;;;5084361;28;20611;-43
2023/09/07 03:33:23;;;;;;;3.30;3.00;;;21.70;99.90;;;;;;5084317;28;20024;-43
2023/09/07 03:35:48;;;;;;;3.30;3.00;;;21.70;99.90;;;;;;5083779;28;20024;-42
2023/09/07 03:38:14;;;;;;;3.30;3.08;;;21.70;99.90;;;;;;5083383;28;20388;-43
2023/09/07 03:40:40;;;;;;;3.20;2.90;;;21.70;99.90;;;;;;5084119;28;20070;-43
2023/09/07 03:43:05;;;;;;;3.30;3.00;;;21.60;99.90;;;;;;5083156;28;20082;-44
2023/09/07 03:45:34;;;;;;;3.83;3.10;;;21.60;99.90;;;;;;5084699;28;20383;-43
2023/09/07 03:48:00;;;;;;;3.00;2.80;;;21.60;99.90;;;;;;5084036;28;20102;-42
2023/09/07 03:50:25;;;;;;;3.10;2.90;;;21.60;99.90;;;;;;5083684;28;20132;-42
2023/09/07 03:52:51;;;;;;;3.58;3.28;;;21.60;99.90;;;;;;5083947;28;20534;-42
2023/09/07 03:55:16;;;;;;;3.40;3.10;;;21.50;99.90;;;;;;5083130;28;20553;-42
2023/09/07 03:57:42;;;;;;;2.78;2.58;;;21.50;99.90;;;;;;5083766;28;20047;-43
2023/09/07 04:00:08;;;;;;;4.05;2.80;;;21.50;99.90;;;;;;5083289;28;20127;-42
2023/09/07 04:02:37;;;;;;;3.08;2.78;;;21.50;99.90;;;;;;5083958;28;20032;-42
2023/09/07 04:05:04;;;;;;;3.35;3.05;;;21.50;99.90;;;;;;5084632;28;20018;-43
2023/09/07 04:07:30;;;;;;;3.20;2.90;;;21.50;99.90;;;;;;5087812;28;20031;-42
2023/09/07 04:09:56;;;;;;;3.75;2.95;;;21.40;99.90;;;;;;5087410;28;20033;-42
2023/09/07 04:12:22;;;;;;;3.67;3.22;;;21.40;99.90;;;;;;5087922;28;20476;-42
2023/09/07 04:14:47;;;;;;;3.00;2.70;;;21.40;99.90;;;;;;5088040;28;20020;-43
2023/09/07 04:17:13;;;;;;;3.97;3.08;;;21.40;99.90;;;;;;5086772;28;20071;-43
2023/09/07 04:19:39;;;;;;;3.47;2.80;;;21.40;99.90;;;;;;5087897;28;20099;-42
2023/09/07 04:22:04;;;;;;;3.22;2.70;;;21.40;99.90;;;;;;5087155;28;20052;-43
2023/09/07 04:24:30;;;;;;;3.30;3.00;;;21.30;99.90;;;;;;5087097;28;20028;-43
2023/09/07 04:27:02;;;;;;;3.38;3.08;;;21.30;99.90;;;;;;5087930;28;20020;-43
2023/09/07 04:29:28;;;;;;;;;;;21.30;99.90;;;;;;5088329;28;20051;-42
2023/09/07 04:31:54;;;;;;;3.25;2.95;;;21.30;99.90;;;;;;5086600;28;19955;-43
2023/09/07 04:34:21;;;;;;;3.50;3.20;;;21.20;99.90;;;;;;5087211;28;20541;-43
2023/09/07 04:36:47;;;;;;;4.55;3.20;;;21.20;99.90;;;;;;5086596;28;20495;-43
2023/09/07 04:39:15;;;;;;;3.72;3.25;;;21.20;99.90;;;;;;5086123;28;20070;-43
2023/09/07 04:41:41;;;;;;;3.50;3.20;;;21.20;99.90;;;;;;5086716;28;20106;-43
2023/09/07 04:44:07;;;;;;;4.82;2.90;;;21.20;99.90;;;;;;5086790;28;20036;-43
2023/09/07 04:46:32;;;;;;;3.10;2.80;;;21.10;99.90;;;;;;5086586;28;20117;-43
2023/09/07 04:48:58;;;;;;;3.50;3.20;;;21.10;99.90;;;;;;5086880;28;20054;-42
2023/09/07 04:51:25;;;;;;;3.03;2.83;;;21.10;99.90;;;;;;5086688;28;20077;-43
2023/09/07 04:53:51;;;;;;;3.60;3.30;;;21.10;99.90;;;;;;5086604;28;20028;-43
2023/09/07 04:56:17;;;;;;;3.50;3.20;;;21.10;99.90;;;;;;5086305;28;20036;-42
2023/09/07 04:58:42;;;;;;;3.53;3.13;;;21.00;99.90;;;;;;5086266;28;20016;-42
2023/09/07 05:01:09;;;;;;;4.38;3.20;;;21.00;99.90;;;;;;5086314;28;20124;-42
2023/09/07 05:03:42;;;;;;;3.47;3.17;;;21.00;99.90;;;;;;5087321;28;20017;-43
2023/09/07 05:06:07;;;;;;;;;;;21.00;99.90;;;;;;5086433;28;20391;-43
2023/09/07 05:08:33;;;;;;;3.30;3.00;;;20.90;99.90;;;;;;5087473;28;20359;-42
2023/09/07 05:11:03;;;;;;;3.65;3.30;;;20.90;99.90;;;;;;5087038;28;20019;-43
2023/09/07 05:13:29;;;;;;;3.75;3.20;;;20.90;99.90;;;;;;5086245;28;20066;-43
2023/09/07 05:15:56;;;;;;;4.78;3.50;;;20.90;99.90;;;;;;5087203;28;20509;-42
2023/09/07 05:18:22;;;;;;;5.03;3.38;;;20.90;99.90;;;;;;5084057;28;20069;-43
2023/09/07 05:20:49;;;;;;;4.20;3.72;;;20.90;99.90;;;;;;5084972;28;20028;-43
2023/09/07 05:23:17;;;;;;;5.38;3.55;;;20.80;99.90;;;;;;5084991;28;20803;-42
2023/09/07 05:25:46;;;;;;;3.70;3.40;;;20.90;99.90;;;;;;5085911;28;20035;-43
2023/09/07 05:28:22;;;;;;;4.10;3.38;;;20.90;99.90;;;;;;5083888;28;20060;-42
2023/09/07 05:30:48;;;;;;;3.83;3.50;;;20.80;99.90;;;;;;5085350;28;20059;-42
2023/09/07 05:33:15;;;;;;;3.13;2.92;;;20.80;99.90;;;;;;5084914;28;20016;-43
2023/09/07 05:35:42;;;;;;;3.72;3.10;;;20.80;99.90;;;;;;5084622;28;20046;-43
2023/09/07 05:38:10;;;;;;;3.60;3.15;;;20.80;99.90;;;;;;5084710;28;20021;-43
2023/09/07 05:40:38;;;;;;;3.60;2.70;;;20.80;99.90;;;;;;5085911;28;20032;-43
2023/09/07 05:43:04;;;;;;;3.83;3.30;;;20.80;99.90;;;;;;5083534;28;20023;-43
2023/09/07 05:45:33;;;;;;;3.50;3.20;;;20.80;99.90;;;;;;5085316;28;20028;-43
2023/09/07 05:47:59;;;;;;;3.08;2.75;;;20.90;99.90;;;;;;5084441;28;20062;-42
2023/09/07 05:50:25;;;;;;;3.22;2.90;;;20.90;99.90;;;;;;5085363;28;20107;-42
2023/09/07 05:52:51;;;;;;;3.10;2.88;;;20.90;99.90;;;;;;5085518;28;20047;-43
2023/09/07 05:55:16;;;;;;;3.60;3.30;;;20.90;99.90;;;;;;5083877;28;20026;-43
2023/09/07 05:57:42;;;;;;;2.88;2.55;;;20.90;99.90;;;;;;5084602;28;20484;-42
2023/09/07 06:00:08;;;;;;;3.75;3.03;;;20.90;99.90;;;;;;5079614;28;20285;-43
2023/09/07 06:02:34;;;;;;;3.50;2.97;;;20.90;99.90;;;;;;5084465;28;20027;-43
2023/09/07 06:05:00;;;;;;;3.30;3.00;;;20.90;99.90;;;;;;5084373;28;20032;-43
2023/09/07 06:07:25;;;;;;;3.38;3.03;;;20.90;99.90;;;;;;5084962;28;20109;-43
2023/09/07 06:09:51;;;;;;;3.33;3.03;;;20.90;99.90;;;;;;5084443;28;20032;-43
2023/09/07 06:12:17;;;;;;;3.38;3.08;;;20.90;99.90;;;;;;5064037;28;20028;-43
2023/09/07 06:14:44;;;;;;;3.70;3.28;;;20.90;99.90;;;;;;5078720;28;20050;-43
2023/09/07 06:17:09;;;;;;;3.50;3.15;;;21.00;99.90;;;;;;5083061;28;20036;-43
2023/09/07 06:19:35;;;;;;;2.92;2.72;;;21.00;99.90;;;;;;5084438;28;20028;-43
2023/09/07 06:22:01;;;;;;;3.92;3.30;;;21.00;99.90;;;;;;5085330;28;20065;-43
2023/09/07 06:24:26;;;;;;;3.97;3.53;;;21.00;99.90;;;;;;5084366;28;20027;-42
2023/09/07 06:26:55;;;;;;;3.42;3.13;;;21.00;99.90;;;;;;5085106;28;20073;-42
2023/09/07 06:29:20;;;;;;;3.40;3.10;;;21.00;99.90;;;;;;5084417;28;20019;-41
2023/09/07 06:31:46;;;;;;;3.53;3.20;;;21.00;99.90;;;;;;5084513;28;20024;-43
2023/09/07 06:34:11;;;;;;;3.25;2.95;;;21.00;99.90;;;;;;5084784;28;20023;-43
2023/09/07 06:36:37;;;;;;;4.40;3.03;;;21.00;99.90;;;;;;5085130;28;20032;-43
2023/09/07 06:39:04;;;;;;;3.42;3.13;;;21.10;99.90;;;;;;5083978;28;20107;-43
2023/09/07 06:41:30;;;;;;;4.30;3.00;;;21.10;99.90;;;;;;5083455;28;20036;-43
2023/09/07 06:43:56;;;;;;;4.25;3.30;;;21.10;99.90;;;;;;5083734;28;20364;-43
2023/09/07 06:46:21;;;;;;;3.40;3.10;;;21.20;99.90;;;;;;5083512;28;20035;-43
2023/09/07 06:48:47;;;;;;;4.70;3.20;;;21.20;99.90;;;;;;5084535;28;20089;-43
2023/09/07 06:51:13;;;;;;;3.30;3.00;;;21.20;99.90;;;;;;5082906;28;20035;-43
2023/09/07 06:53:38;;;;;;;2.90;2.60;;;21.20;99.90;;;;;;5083917;28;20032;-43
2023/09/07 06:56:07;;;;;;;3.28;2.97;;;21.20;99.90;;;;;;5083135;28;20093;-43
2023/09/07 06:58:34;;;;;;;3.40;3.10;;;21.20;99.90;;;;;;5083659;28;20012;-42
2023/09/07 07:01:00;;;;;;;3.45;3.15;;;21.20;99.90;;;;;;5083730;28;20044;-44
2023/09/07 07:03:28;;;;;;;3.60;3.30;;;21.20;99.90;;;;;;5085133;28;20042;-43
2023/09/07 07:05:54;;;;;;;3.22;2.92;;;21.30;99.90;;;;;;5084383;28;20056;-43
2023/09/07 07:08:19;;;;;;;3.33;3.03;;;21.30;99.90;;;;;;5084074;28;20692;-43
2023/09/07 07:10:45;;;;;;;3.30;3.00;;;21.30;99.90;;;;;;5084954;28;20020;-41
2023/09/07 07:13:14;;;;;;;3.38;3.08;;;21.40;99.90;;;;;;5083575;28;20564;-42
2023/09/07 07:15:39;;;;;;;3.38;3.08;;;21.40;99.90;;;;;;5084790;28;20459;-43
2023/09/07 07:18:08;;;;;;;3.00;2.80;;;21.40;99.90;;;;;;5084098;28;20032;-43
2023/09/07 07:20:38;;;;;;;3.22;2.92;;;21.40;99.90;;;;;;5083908;28;20028;-43
2023/09/07 07:23:03;;;;;;;3.38;3.10;;;21.50;99.90;;;;;;5084139;28;20495;-44
2023/09/07 07:25:33;;;;;;;6.65;3.30;;;21.50;99.90;;;;;;5084696;28;20088;-44
2023/09/07 07:28:05;;;;;;;3.28;2.88;;;21.50;99.90;;;;;;5082583;28;20082;-42
2023/09/07 07:30:43;;;;;;;;;;;21.50;99.90;;;;;;5085395;28;20032;-42
2023/09/07 07:33:09;;;;;;;3.10;2.40;;;21.50;99.90;;;;;;5083606;28;20284;-43
2023/09/07 07:35:35;;;;;;;3.30;3.00;;;21.60;99.90;;;;;;5084158;28;20020;-44
2023/09/07 07:38:06;;;;;;;3.20;2.90;;;21.60;99.90;;;;;;5083840;28;20069;-43
2023/09/07 07:40:31;;;;;;;3.15;2.83;;;21.70;99.90;;;;;;5086618;28;20059;-43
2023/09/07 07:42:57;;;;;;;3.10;2.60;;;21.70;99.90;;;;;;5088172;28;20088;-44
2023/09/07 07:45:22;;;;;;;2.65;2.38;;;21.80;99.90;;;;;;5087816;28;20605;-43
2023/09/07 07:47:49;;;;;;;2.30;2.10;;;21.80;99.90;;;;;;5087642;28;20081;-44
2023/09/07 07:50:15;;;;;;;2.92;2.65;;;21.80;99.90;;;;;;5088029;28;20035;-44
2023/09/07 07:52:44;;;;;;;2.47;2.28;;;21.90;99.90;;;;;;5088402;28;20016;-44
2023/09/07 07:55:11;;;;;;;3.72;2.75;;;21.90;99.90;;;;;;5087425;28;20028;-44
2023/09/07 07:57:36;;;;;;;2.83;2.63;;;22.00;99.90;;;;;;5087072;28;20036;-42
2023/09/07 08:00:04;;;;;;;3.10;2.80;;;22.00;99.90;;;;;;5086859;28;20499;-43
2023/09/07 08:02:33;;;;;;;4.10;2.40;;;22.00;99.90;;;;;;5087402;28;20376;-42
2023/09/07 08:04:59;;;;;;;3.47;2.65;;;22.10;99.90;;;;;;5087314;28;20085;-42
2023/09/07 08:07:26;;;;;;;2.50;2.30;;;22.10;99.90;;;;;;5087943;28;20028;-42
2023/09/07 08:09:52;;;;;;;2.80;2.60;;;22.10;99.90;;;;;;5086963;28;20032;-43
2023/09/07 08:12:17;;;;;;;2.63;2.42;;;22.20;99.90;;;;;;5087723;28;20380;-42
2023/09/07 08:14:46;;;;;;;3.20;2.90;;;22.30;99.90;;;;;;5088210;28;20020;-42
2023/09/07 08:17:12;;;;;;;2.63;2.42;;;22.30;99.90;;;;;;5086411;28;20464;-42
2023/09/07 08:19:38;;;;;;;2.60;2.40;;;22.30;99.90;;;;;;5087596;28;20016;-42
2023/09/07 08:22:04;;;;;;;2.70;2.50;;;22.40;99.90;;;;;;5086882;28;20028;-42
2023/09/07 08:24:30;;;;;;;2.70;2.50;;;22.50;99.90;;;;;;5086822;28;20070;-43
2023/09/07 08:26:57;;;;;;;2.42;2.22;;;22.50;99.90;;;;;;5087782;28;20444;-42
2023/09/07 08:29:26;;;;;;;5.38;2.60;;;22.50;99.90;;;;;;5087524;28;20021;-43
2023/09/07 08:31:59;;;;;;;2.88;2.25;;;22.60;99.90;;;;;;5087072;28;20024;-43
2023/09/07 08:34:25;;;;;;;2.67;2.47;;;22.60;99.90;;;;;;5087594;28;20020;-43
2023/09/07 08:36:52;;;;;;;3.00;2.40;;;22.70;99.90;;;;;;5086285;28;20032;-43
2023/09/07 08:39:20;;;;;;;3.90;2.65;;;22.70;99.90;;;;;;5086692;28;20133;-43
2023/09/07 08:41:45;;;;;;;3.10;2.90;;;22.80;99.90;;;;;;5087381;28;20047;-43
2023/09/07 08:44:15;;;;;;;3.05;2.80;;;22.80;99.90;;;;;;5085749;28;20020;-44
2023/09/07 08:46:41;;;;;;;2.75;2.42;;;22.80;99.90;;;;;;5087480;28;20036;-43
2023/09/07 08:49:11;;;;;;;3.95;2.67;;;22.90;99.90;;;;;;5086545;28;20036;-43
2023/09/07 08:51:37;;;;;;;3.30;2.80;;;22.90;99.90;;;;;;5085724;28;20032;-43
2023/09/07 08:54:04;;;;;;;2.80;2.60;;;23.00;99.90;;;;;;5086202;28;20071;-44
2023/09/07 08:56:29;;;;;;;2.75;2.55;;;23.00;99.90;;;;;;5086970;28;20044;-42
2023/09/07 08:58:58;;;;;;;3.03;2.80;;;23.10;99.90;;;;;;5085991;28;20141;-44
2023/09/07 09:01:24;;;;;;;3.95;2.30;;;23.10;99.90;;;;;;5084741;28;20044;-44
2023/09/07 09:03:56;;;;;;;2.88;2.67;;;23.10;99.90;;;;;;5087090;28;20162;-43
2023/09/07 09:06:22;;;;;;;;;;;23.20;99.90;;;;;;5082715;28;20367;-44
2023/09/07 09:08:55;;;;;;;2.47;2.28;;;23.20;99.90;;;;;;5087296;28;20538;-43
2023/09/07 09:11:22;;;;;;;5.28;2.70;;;23.20;99.90;;;;;;5085670;28;20027;-44
2023/09/07 09:13:50;;;;;;;2.90;2.60;;;23.20;99.90;;;;;;5086000;28;20035;-43
2023/09/07 09:16:19;;;;;;;3.10;2.80;;;23.30;99.90;;;;;;5086130;28;20047;-43
2023/09/07 09:18:55;;;;;;;3.17;2.50;;;23.40;99.90;;;;;;5086931;28;20024;-43
2023/09/07 09:21:26;;;;;;;2.47;2.28;;;23.40;99.90;;;;;;5085977;28;20024;-42
2023/09/07 09:23:54;;;;;;;3.15;2.85;;;23.50;99.90;;;;;;5087069;28;20028;-43
2023/09/07 09:26:20;;;;;;;2.45;2.25;;;23.50;99.90;;;;;;5085417;28;20079;-42
2023/09/07 09:28:46;;;;;;;3.75;2.35;;;23.60;99.90;;;;;;5086880;28;20031;-42
2023/09/07 09:31:15;;;;;;;2.30;2.10;;;23.70;99.90;;;;;;5086296;28;20162;-42
2023/09/07 09:33:53;;;;;;;2.50;2.30;;;23.80;99.90;;;;;;5085126;28;20483;-42
2023/09/07 09:36:18;;;;;;;2.20;2.00;;;23.90;99.90;;;;;;5085390;28;20032;-42
2023/09/07 09:38:52;;;;;;;2.70;2.28;;;23.90;99.90;;;;;;5086368;28;20520;-42
2023/09/07 09:41:19;;;;;;;3.33;2.30;;;24.00;99.90;;;;;;5084957;28;20032;-43
2023/09/07 09:43:51;;;;;;;2.55;2.25;;;24.00;99.90;;;;;;5086043;28;20036;-43
2023/09/07 09:46:17;;;;;;;2.38;2.17;;;24.10;99.90;;;;;;5085195;28;20020;-43
2023/09/07 09:48:44;;;;;;;2.63;2.42;;;24.10;99.90;;;;;;5085100;28;20554;-43
2023/09/07 09:51:13;;;;;;;2.33;2.13;;;24.10;99.90;;;;;;5085196;28;20106;-42
2023/09/07 09:53:39;;;;;;;2.55;2.20;;;24.20;99.90;;;;;;5085566;28;20028;-42
2023/09/07 09:56:04;;;;;;;2.50;2.30;;;24.30;99.90;;;;;;5084680;28;20051;-43
2023/09/07 09:58:30;;;;;;;2.30;2.10;;;24.30;99.90;;;;;;5085353;28;20028;-42
2023/09/07 10:00:58;;;;;;;3.03;2.70;;;24.30;99.90;;;;;;5085406;28;20060;-42
2023/09/07 10:03:34;;;;;;;2.65;2.22;;;24.40;99.90;;;;;;5084187;28;20016;-43
2023/09/07 10:06:10;;;;;;;3.90;2.40;;;24.50;99.90;;;;;;5084958;28;20031;-42
2023/09/07 10:08:37;;;;;;;2.40;2.20;;;24.50;99.90;;;;;;5084822;28;20055;-42
2023/09/07 10:11:11;;;;;;;2.45;2.25;;;24.60;99.90;;;;;;5085290;28;20077;-43
2023/09/07 10:13:37;;;;;;;2.97;2.60;;;24.60;99.90;;;;;;5082028;28;20489;-43
2023/09/07 10:16:07;;;;;;;2.65;2.42;;;24.60;99.90;;;;;;5084510;28;20035;-46
2023/09/07 10:18:37;;;;;;;2.42;2.22;;;24.60;99.90;;;;;;5085210;28;20015;-45
2023/09/07 10:21:03;;;;;;;2.45;2.25;;;24.60;99.90;;;;;;5084888;28;20129;-43
2023/09/07 10:23:40;;;;;;;2.80;2.60;;;24.70;99.90;;;;;;5084700;28;20040;-43
2023/09/07 10:26:11;;;;;;;3.17;2.10;;;24.70;99.90;;;;;;5084780;28;20024;-44
2023/09/07 10:28:37;;;;;;;3.08;2.15;;;24.70;99.90;;;;;;5084955;28;20067;-43
2023/09/07 10:31:06;;;;;;;2.53;2.33;;;24.80;99.90;;;;;;5083841;28;20052;-42
2023/09/07 10:33:35;;;;;;;2.70;2.20;;;24.80;99.90;;;;;;5084942;28;20024;-42
2023/09/07 10:36:03;;;;;;;2.67;2.15;;;24.80;99.90;;;;;;5084138;28;20646;-42
2023/09/07 10:38:31;;;;;;;3.15;2.08;;;24.90;99.90;;;;;;5084568;28;20050;-42
2023/09/07 10:41:01;;;;;;;2.75;2.13;;;24.90;99.90;;;;;;5085375;28;20081;-43
2023/09/07 10:43:32;;;;;;;2.30;2.10;;;25.00;99.90;;;;;;5084636;28;20016;-43
2023/09/07 10:46:00;;;;;;;2.65;2.25;;;25.00;99.90;;;;;;5085138;28;20016;-42
2023/09/07 10:48:28;;;;;;;2.67;2.28;;;25.00;99.90;;;;;;5084762;28;20048;-42
2023/09/07 10:50:54;;;;;;;2.25;2.05;;;25.20;99.90;;;;;;5085069;28;20024;-42
2023/09/07 10:53:32;;;;;;;2.20;2.00;;;25.30;99.90;;;;;;5084878;28;20050;-43
2023/09/07 10:56:05;;;;;;;2.42;2.22;;;25.40;99.90;;;;;;5085079;28;20832;-42
2023/09/07 10:58:38;;;;;;;2.40;2.20;;;25.50;99.90;;;;;;5085040;28;20021;-43
2023/09/07 11:01:04;;;;;;;2.53;2.33;;;25.50;99.90;;;;;;5083912;28;20121;-44
2023/09/07 11:03:30;;;;;;;2.15;1.92;;;25.60;99.90;;;;;;5085004;28;20036;-43
2023/09/07 11:06:03;;;;;;;2.58;2.15;;;25.60;99.90;;;;;;5084242;28;20536;-43
2023/09/07 11:08:32;;;;;;;2.05;1.95;;;25.60;99.90;;;;;;5084432;28;20032;-44
2023/09/07 11:10:58;;;;;;;2.00;1.90;;;25.60;99.90;;;;;;5073199;28;20463;-43
2023/09/07 11:13:24;;;;;;;2.17;1.98;;;25.60;99.90;;;;;;5084444;28;20105;-43
2023/09/07 11:15:54;;;;;;;2.20;2.00;;;25.60;99.90;;;;;;5089117;28;20153;-43
2023/09/07 11:18:21;;;;;;;2.38;2.17;;;25.60;99.90;;;;;;5088481;28;20039;-42
2023/09/07 11:20:48;;;;;;;2.10;1.98;;;25.70;99.90;;;;;;5088353;28;20073;-41
2023/09/07 11:23:14;;;;;;;2.13;2.03;;;25.80;99.90;;;;;;5087917;28;20445;-43
2023/09/07 11:25:39;;;;;;;2.17;1.92;;;25.80;99.90;;;;;;5087237;28;20070;-42
2023/09/07 11:28:06;;;;;;;2.80;2.00;;;25.80;99.90;;;;;;5087898;28;20024;-43
2023/09/07 11:30:33;;;;;;;2.17;1.98;;;25.90;99.90;;;;;;5088603;28;20028;-43
2023/09/07 11:33:01;;;;;;;2.47;2.15;;;25.90;99.80;;;;;;5067506;28;20032;-43
2023/09/07 11:35:27;;;;;;;3.10;1.92;;;25.90;99.70;;;;;;5082528;28;20039;-44
2023/09/07 11:37:53;;;;;;;2.45;2.25;;;25.90;99.70;;;;;;5088848;28;20047;-43
2023/09/07 11:40:19;;;;;;;2.00;1.90;;;25.90;99.60;;;;;;5086858;28;20142;-43
2023/09/07 11:42:44;;;;;;;2.30;2.08;;;26.00;99.50;;;;;;5088633;28;20028;-43
2023/09/07 11:45:13;;;;;;;2.42;1.90;;;26.10;99.30;;;;;;5087740;28;20076;-43
2023/09/07 11:47:39;;;;;;;2.85;2.42;;;26.10;99.20;;;;;;5087585;28;20687;-42
2023/09/07 11:50:06;;;;;;;2.30;2.10;;;26.20;99.10;;;;;;5087456;28;20016;-42
2023/09/07 11:52:32;;;;;;;2.15;1.98;;;26.10;99.00;;;;;;5088677;28;20112;-43
2023/09/07 11:54:58;;;;;;;2.10;1.90;;;26.20;99.00;;;;;;5087289;28;20476;-42
2023/09/07 11:57:23;;;;;;;2.75;2.55;;;26.20;98.90;;;;;;5087645;28;20502;-43
2023/09/07 11:59:49;;;;;;;2.47;2.28;;;26.30;98.80;;;;;;5088350;28;20032;-43
2023/09/07 12:02:16;;;;;;;2.10;2.00;;;26.30;98.70;;;;;;5086099;28;20040;-44
2023/09/07 12:04:41;;;;;;;2.08;1.88;;;26.40;98.60;;;;;;5087895;28;20103;-44
2023/09/07 12:07:07;;;;;;;1.80;1.70;;;26.40;98.60;;;;;;5087507;28;20103;-44
2023/09/07 12:09:33;;;;;;;2.80;2.10;;;26.40;98.50;;;;;;5087364;28;20482;-43
2023/09/07 12:11:58;;;;;;;2.50;2.30;;;26.40;98.40;;;;;;5087734;28;20063;-43
2023/09/07 12:14:24;;;;;;;2.08;1.88;;;26.50;98.40;;;;;;5087335;28;20028;-43
2023/09/07 12:16:49;;;;;;;2.50;2.10;;;26.50;98.30;;;;;;5086711;28;20032;-44
2023/09/07 12:19:15;;;;;;;2.08;1.98;;;26.50;98.30;;;;;;5087265;28;20048;-43
2023/09/07 12:21:41;;;;;;;1.52;1.42;;;26.60;98.20;;;;;;5087476;28;20427;-43
2023/09/07 12:24:12;;;;;;;2.05;1.92;;;26.60;98.20;;;;;;5086974;28;20551;-44
2023/09/07 12:26:37;;;;;;;2.10;2.00;;;26.70;98.10;;;;;;5086526;28;20038;-44
2023/09/07 12:29:04;;;;;;;2.47;2.28;;;26.70;98.10;;;;;;5086827;28;20021;-44
2023/09/07 12:31:31;;;;;;;2.13;1.92;;;26.80;98.00;;;;;;5083891;28;20103;-42
2023/09/07 12:33:56;;;;;;;2.00;1.90;;;26.90;98.20;;;;;;5088162;28;20033;-42
2023/09/07 12:36:22;;;;;;;2.20;2.00;;;26.90;97.80;;;;;;5086663;28;20020;-42
2023/09/07 12:38:48;;;;;;;3.22;1.95;;;26.90;97.80;;;;;;5087765;28;20028;-42
2023/09/07 12:41:14;;;;;;;2.25;2.10;;;27.00;97.90;;;;;;5086921;28;20028;-43
2023/09/07 12:43:43;;;;;;;2.22;2.13;;;27.00;97.90;;;;;;5086303;28;20028;-43
2023/09/07 12:46:09;;;;;;;2.10;2.00;;;27.10;97.70;;;;;;5086193;28;20744;-44